Terminal Aerodrome Forecast
Issued by NWS Portland, OR

Home | Current Version | Previous Version | Text Only | Print | Product List | Glossary On
Versions: 1 2 3 4 5 6 7 8 9 10 11 12 13 14 15 16 17 18 19 20 21 22 23 24 25 26 27 28
000
FTUS46 KPQR 250541
TAFEUG
TAF
KEUG 250541Z 2506/2606 18003KT P6SM SCT250
     FM250800 VRB02KT 2SM BR BKN250
     FM251000 00000KT 1/4SM FG VV001
     FM251900 12005KT 4SM -RA BR SCT015 OVC050
     FM260100 18005KT P6SM SCT025 OVC050=

USA.gov is the U.S. government's official web portal to all federal, state and local government web resources and services.